Time;durP1;ratioP1;P1;durP2;ratioP2;P2;SDS_P1;SDS_P2;PMS_P1;PMS_P2;Temp;Humidity;BMP_temperature;BMP_pressure;BME280_temperature;BME280_humidity;BME280_pressure;Samples;Min_cycle;Max_cycle;Signal;HPM_P1;HPM_P2
2022/06/20 00:00:07;;;;;;;16.88;4.90;;;22.30;99.90;;;;;;5017858;28;20033;-76
2022/06/20 00:02:39;;;;;;;15.57;5.32;;;22.30;99.90;;;;;;5034083;28;20021;-77
2022/06/20 00:05:05;;;;;;;17.85;5.95;;;22.30;99.90;;;;;;5027583;28;20017;-77
2022/06/20 00:07:31;;;;;;;15.60;5.25;;;22.30;99.90;;;;;;5021352;28;20045;-77
2022/06/20 00:09:57;;;;;;;17.48;6.18;;;22.20;99.90;;;;;;5019199;28;20089;-77
2022/06/20 00:12:26;;;;;;;18.20;5.72;;;22.20;99.90;;;;;;5024088;28;20029;-76
2022/06/20 00:14:56;;;;;;;16.88;5.43;;;22.20;99.90;;;;;;5030153;28;20021;-77
2022/06/20 00:17:22;;;;;;;14.65;5.10;;;22.20;99.90;;;;;;5014953;28;20445;-76
2022/06/20 00:19:48;;;;;;;19.00;5.53;;;22.20;99.90;;;;;;5015040;28;20025;-77
2022/06/20 00:22:14;;;;;;;12.38;4.93;;;22.20;99.90;;;;;;5028677;28;20052;-76
2022/06/20 00:24:39;;;;;;;15.18;5.00;;;22.20;99.90;;;;;;5017433;28;20025;-76
2022/06/20 00:27:09;;;;;;;14.98;4.43;;;22.10;99.90;;;;;;5031442;28;20072;-77
2022/06/20 00:29:36;;;;;;;12.95;4.97;;;22.10;99.90;;;;;;5019213;28;20033;-76
2022/06/20 00:32:04;;;;;;;20.35;5.38;;;22.10;99.90;;;;;;5034782;28;20014;-77
2022/06/20 00:34:30;;;;;;;11.55;4.22;;;22.00;99.90;;;;;;5038396;28;20051;-76
2022/06/20 00:36:56;;;;;;;10.98;4.20;;;21.90;99.90;;;;;;5038610;28;20081;-76
2022/06/20 00:39:22;;;;;;;13.75;4.70;;;21.90;99.90;;;;;;5032258;28;20036;-76
2022/06/20 00:41:50;;;;;;;11.40;4.78;;;21.90;99.90;;;;;;5005683;28;20112;-77
2022/06/20 00:44:26;;;;;;;13.07;4.45;;;21.80;99.90;;;;;;5022756;28;20026;-76
2022/06/20 00:46:56;;;;;;;10.88;3.85;;;21.80;99.90;;;;;;5009331;28;20026;-77
2022/06/20 00:49:36;;;;;;;13.90;4.38;;;21.80;99.90;;;;;;5006942;28;20053;-77
2022/06/20 00:52:06;;;;;;;7.68;3.38;;;21.70;99.90;;;;;;5031095;28;20057;-77
2022/06/20 00:54:44;;;;;;;10.20;3.88;;;21.70;99.90;;;;;;5026393;28;20032;-77
2022/06/20 00:57:17;;;;;;;8.85;3.30;;;21.70;99.90;;;;;;5027182;28;20056;-77
2022/06/20 00:59:49;;;;;;;10.65;3.22;;;21.60;99.90;;;;;;5013056;28;20438;-77
2022/06/20 01:02:23;;;;;;;5.82;2.83;;;21.60;99.90;;;;;;5035084;28;20037;-77
2022/06/20 01:04:55;;;;;;;6.90;3.30;;;21.60;99.90;;;;;;5033724;28;20028;-77
2022/06/20 01:07:42;;;;;;;5.45;2.58;;;21.60;99.90;;;;;;5036726;28;20014;-77
2022/06/20 01:10:12;;;;;;;4.90;2.35;;;21.60;99.90;;;;;;5016095;28;20021;-77
2022/06/20 01:12:51;;;;;;;8.15;2.75;;;21.60;99.90;;;;;;5006340;28;20483;-77
2022/06/20 01:15:19;;;;;;;5.80;2.88;;;21.60;99.90;;;;;;5011055;28;20509;-76
2022/06/20 01:17:45;;;;;;;5.07;2.42;;;21.50;99.90;;;;;;5013535;28;20014;-77
2022/06/20 01:20:22;;;;;;;5.45;2.72;;;21.50;99.90;;;;;;5010283;28;20022;-76
2022/06/20 01:23:12;;;;;;;4.88;2.25;;;21.50;99.90;;;;;;5013856;28;20543;-76
2022/06/20 01:25:42;;;;;;;7.50;2.70;;;21.50;99.90;;;;;;5011375;28;20501;-76
2022/06/20 01:28:10;;;;;;;;;;;21.40;99.90;;;;;;5017763;28;20026;-76
2022/06/20 01:30:41;;;;;;;6.43;2.83;;;21.40;99.90;;;;;;5032374;28;19913;-76
2022/06/20 01:33:07;;;;;;;6.63;2.20;;;21.40;99.90;;;;;;5036975;28;20022;-77
2022/06/20 01:38:19;;;;;;;7.97;3.17;;;21.30;99.90;;;;;;5039035;28;20028;-76
2022/06/20 01:43:34;;;;;;;7.32;2.75;;;21.20;99.90;;;;;;5024430;28;20036;-77
2022/06/20 01:46:04;;;;;;;7.93;2.97;;;21.10;99.90;;;;;;5022601;28;20047;-76
2022/06/20 01:48:33;;;;;;;5.25;2.80;;;21.10;99.90;;;;;;5027259;28;20124;-75
2022/06/20 01:50:59;;;;;;;7.07;2.25;;;21.10;99.90;;;;;;5007034;28;20033;-76
2022/06/20 01:53:31;;;;;;;8.32;2.35;;;21.10;99.90;;;;;;5011190;28;20518;-76
2022/06/20 01:55:58;;;;;;;5.20;2.88;;;21.10;99.90;;;;;;5027625;28;20080;-76
2022/06/20 01:58:35;;;;;;;3.60;2.13;;;21.00;99.90;;;;;;5014244;28;20071;-76
2022/06/20 02:01:03;;;;;;;5.85;2.58;;;21.00;99.90;;;;;;5029513;28;20029;-76
2022/06/20 02:03:33;;;;;;;10.57;3.22;;;21.00;99.90;;;;;;5035245;28;20024;-76
2022/06/20 02:05:59;;;;;;;5.22;2.45;;;21.00;99.90;;;;;;5033752;28;20021;-76
2022/06/20 02:08:25;;;;;;;6.07;2.83;;;21.00;99.90;;;;;;5019244;28;20509;-76
2022/06/20 02:11:08;;;;;;;7.43;3.35;;;21.00;99.90;;;;;;5028533;28;20032;-76
2022/06/20 02:13:39;;;;;;;7.70;2.72;;;21.00;99.90;;;;;;5005773;28;20018;-76
2022/06/20 02:16:08;;;;;;;5.68;3.10;;;21.10;99.90;;;;;;5016111;28;20444;-76
2022/06/20 02:18:39;;;;;;;13.63;3.50;;;21.10;99.90;;;;;;5026299;28;20014;-76
2022/06/20 02:21:09;;;;;;;5.40;3.08;;;21.20;99.90;;;;;;5030919;28;20052;-76
2022/06/20 02:23:39;;;;;;;6.88;3.30;;;21.20;99.90;;;;;;5011259;28;20022;-76
2022/06/20 02:26:07;;;;;;;13.82;3.35;;;21.30;99.90;;;;;;5033133;28;20040;-76
2022/06/20 02:28:45;;;;;;;7.30;3.00;;;21.40;99.90;;;;;;5031487;28;20367;-76
2022/06/20 02:31:11;;;;;;;11.43;3.50;;;21.40;99.90;;;;;;5008123;28;20053;-76
2022/06/20 02:33:37;;;;;;;6.38;3.28;;;21.50;99.90;;;;;;5017387;28;20493;-76
2022/06/20 02:36:06;;;;;;;7.63;2.97;;;21.50;99.90;;;;;;5020129;28;20032;-76
2022/06/20 02:38:33;;;;;;;13.00;3.03;;;21.60;99.90;;;;;;5006333;28;20505;-76
2022/06/20 02:41:00;;;;;;;7.93;3.30;;;21.60;99.90;;;;;;5001902;28;20030;-76
2022/06/20 02:43:32;;;;;;;7.38;3.30;;;21.60;99.90;;;;;;5005014;28;20022;-76
2022/06/20 02:45:58;;;;;;;9.95;3.20;;;21.70;99.90;;;;;;5003652;28;20022;-76
2022/06/20 02:48:27;;;;;;;8.13;3.28;;;21.70;99.90;;;;;;5025024;28;20076;-76
2022/06/20 02:50:57;;;;;;;9.23;3.40;;;21.70;99.90;;;;;;5006671;28;20060;-76
2022/06/20 02:53:24;;;;;;;7.80;3.28;;;21.70;99.90;;;;;;5027652;28;20025;-76
2022/06/20 02:55:51;;;;;;;7.85;2.80;;;21.80;99.90;;;;;;5009452;28;20026;-75
2022/06/20 02:58:25;;;;;;;10.40;3.33;;;21.70;99.90;;;;;;5011363;28;20033;-76
2022/06/20 03:01:16;;;;;;;10.35;3.10;;;21.70;99.90;;;;;;5029816;28;20065;-76
2022/06/20 03:03:50;;;;;;;8.13;2.78;;;21.70;99.90;;;;;;5008314;28;20033;-76
2022/06/20 03:06:33;;;;;;;13.25;3.40;;;21.80;99.90;;;;;;5032214;28;20405;-76
2022/06/20 03:09:00;;;;;;;6.75;2.88;;;21.80;99.90;;;;;;5017707;28;20104;-76
2022/06/20 03:11:28;;;;;;;7.85;3.13;;;21.80;99.90;;;;;;5024727;28;20478;-76
2022/06/20 03:13:57;;;;;;;7.05;3.30;;;21.80;99.90;;;;;;5021752;28;20356;-76
2022/06/20 03:16:23;;;;;;;7.53;3.00;;;21.90;99.90;;;;;;5017474;28;20034;-76
2022/06/20 03:18:51;;;;;;;11.43;3.45;;;21.90;99.90;;;;;;5023779;28;20045;-76
2022/06/20 03:21:23;;;;;;;8.07;3.67;;;21.90;99.90;;;;;;5006332;28;20021;-76
2022/06/20 03:23:50;;;;;;;5.88;3.50;;;21.90;99.90;;;;;;5025876;28;20072;-76
2022/06/20 03:26:24;;;;;;;12.07;4.25;;;21.80;99.90;;;;;;5032217;28;20025;-76
2022/06/20 03:28:51;;;;;;;6.88;3.80;;;21.90;99.90;;;;;;5011938;28;20112;-76
2022/06/20 03:31:17;;;;;;;10.85;4.65;;;21.90;99.90;;;;;;5034477;28;20028;-76
2022/06/20 03:33:44;;;;;;;9.93;3.60;;;21.90;99.90;;;;;;5016066;28;20417;-76
2022/06/20 03:36:21;;;;;;;9.80;4.35;;;21.90;99.90;;;;;;5036261;28;20022;-76
2022/06/20 03:38:48;;;;;;;11.40;4.13;;;21.90;99.90;;;;;;5033630;28;20033;-76
2022/06/20 03:41:18;;;;;;;15.93;4.28;;;21.90;99.90;;;;;;5000587;28;20168;-76
2022/06/20 03:44:00;;;;;;;12.32;3.38;;;21.90;99.90;;;;;;5022255;28;20032;-76
2022/06/20 03:46:33;;;;;;;10.20;3.40;;;21.90;99.90;;;;;;5020937;28;20100;-76
2022/06/20 03:49:02;;;;;;;9.77;3.85;;;21.90;99.90;;;;;;5007776;28;20177;-76
2022/06/20 03:51:38;;;;;;;8.57;4.22;;;21.90;99.90;;;;;;5024232;28;20033;-77
2022/06/20 03:54:15;;;;;;;6.80;4.15;;;21.80;99.90;;;;;;5009518;28;20033;-76
2022/06/20 03:56:50;;;;;;;13.10;4.25;;;21.80;99.90;;;;;;5028493;28;20022;-76
2022/06/20 03:59:40;;;;;;;6.72;3.40;;;21.70;99.90;;;;;;5028055;28;20058;-76
2022/06/20 04:02:28;;;;;;;10.40;3.63;;;21.70;99.90;;;;;;5026655;28;20056;-76
2022/06/20 04:05:11;;;;;;;10.40;4.57;;;21.70;99.90;;;;;;5033558;28;20029;-76
2022/06/20 04:07:44;;;;;;;14.80;5.43;;;21.60;99.90;;;;;;5033787;28;20052;-77
2022/06/20 04:13:18;;;;;;;10.70;4.53;;;21.60;99.90;;;;;;5026145;28;20512;-76
2022/06/20 04:15:49;;;;;;;10.23;4.35;;;21.60;99.90;;;;;;5029781;28;20077;-76
2022/06/20 04:18:29;;;;;;;11.63;4.68;;;21.60;99.90;;;;;;5028135;28;20049;-76
2022/06/20 04:20:57;;;;;;;12.70;4.80;;;21.60;99.90;;;;;;5028825;28;20038;-76
2022/06/20 04:23:31;;;;;;;15.82;4.85;;;21.60;99.90;;;;;;5029892;28;20018;-75
2022/06/20 04:26:06;;;;;;;11.07;5.38;;;21.60;99.90;;;;;;5032623;28;20025;-76
2022/06/20 04:28:38;;;;;;;11.07;4.25;;;21.60;99.90;;;;;;5031549;28;20020;-76
2022/06/20 04:31:13;;;;;;;10.07;4.90;;;21.50;99.90;;;;;;5017261;28;20371;-76
2022/06/20 04:34:03;;;;;;;11.38;5.28;;;21.50;99.90;;;;;;5035040;28;20022;-76
2022/06/20 04:36:38;;;;;;;;;;;21.50;99.90;;;;;;5024790;28;20041;-76
2022/06/20 04:39:16;;;;;;;13.23;5.40;;;21.50;99.90;;;;;;5016966;28;19912;-76
2022/06/20 04:42:00;;;;;;;11.30;5.05;;;21.50;99.90;;;;;;5022313;28;20462;-75
2022/06/20 04:44:41;;;;;;;15.25;4.88;;;21.40;99.90;;;;;;5022946;28;20581;-75
2022/06/20 04:47:16;;;;;;;11.80;4.30;;;21.40;99.90;;;;;;5027582;28;20076;-76
2022/06/20 04:49:42;;;;;;;10.43;5.72;;;21.40;99.90;;;;;;5024594;28;20085;-75
2022/06/20 04:52:15;;;;;;;11.65;5.00;;;21.30;99.90;;;;;;5030614;28;20025;-76
2022/06/20 04:54:41;;;;;;;12.80;4.93;;;21.30;99.90;;;;;;5027234;28;20113;-76
2022/06/20 04:57:11;;;;;;;13.27;5.05;;;21.30;99.90;;;;;;5015681;28;20373;-76
2022/06/20 04:59:37;;;;;;;10.40;5.20;;;21.30;99.90;;;;;;5029998;28;20029;-76
2022/06/20 05:02:11;;;;;;;12.85;4.80;;;21.30;99.90;;;;;;5035619;28;20057;-75
2022/06/20 05:04:41;;;;;;;15.68;5.35;;;21.30;99.90;;;;;;5033351;28;20453;-76
2022/06/20 05:07:17;;;;;;;17.63;5.90;;;21.20;99.90;;;;;;5019979;28;20014;-75
2022/06/20 05:10:06;;;;;;;18.67;5.60;;;21.20;99.90;;;;;;5018599;28;20544;-76
2022/06/20 05:12:44;;;;;;;12.25;6.03;;;21.20;99.90;;;;;;5024329;28;20022;-75
2022/06/20 05:15:38;;;;;;;16.83;5.63;;;21.10;99.90;;;;;;5029052;28;20032;-75
2022/06/20 05:18:40;;;;;;;16.15;5.93;;;21.10;99.90;;;;;;5008067;28;20030;-75
2022/06/20 05:21:32;;;;;;;14.20;4.97;;;21.10;99.90;;;;;;5004769;28;20029;-75
2022/06/20 05:24:03;;;;;;;11.80;5.57;;;21.10;99.90;;;;;;5011777;28;20014;-74
2022/06/20 05:26:38;;;;;;;13.70;5.05;;;21.10;99.90;;;;;;5034354;28;20065;-75
2022/06/20 05:29:10;;;;;;;15.30;5.55;;;21.10;99.90;;;;;;5015216;28;20025;-75
2022/06/20 05:31:42;;;;;;;14.25;6.20;;;21.10;99.90;;;;;;5036773;28;20021;-75
2022/06/20 05:34:21;;;;;;;12.02;5.60;;;21.20;99.90;;;;;;5038322;28;20021;-75
2022/06/20 05:36:59;;;;;;;13.15;5.50;;;21.10;99.90;;;;;;5029476;28;20033;-75
2022/06/20 05:39:34;;;;;;;13.95;5.68;;;21.20;99.90;;;;;;5013909;28;20037;-75
2022/06/20 05:42:00;;;;;;;13.38;5.40;;;21.20;99.90;;;;;;5033831;28;20033;-74
2022/06/20 05:44:26;;;;;;;15.68;5.53;;;21.10;99.90;;;;;;5001921;28;20033;-74
2022/06/20 05:46:59;;;;;;;11.88;5.70;;;21.20;99.90;;;;;;5005615;28;20022;-75
2022/06/20 05:49:33;;;;;;;11.48;5.15;;;21.20;99.90;;;;;;5029451;28;20050;-74
2022/06/20 05:52:00;;;;;;;13.18;5.40;;;21.20;99.90;;;;;;5008570;28;20103;-75
2022/06/20 05:54:49;;;;;;;19.33;6.55;;;21.20;99.90;;;;;;5023818;28;20483;-75
2022/06/20 05:57:19;;;;;;;22.65;6.50;;;21.30;99.90;;;;;;5007027;28;20386;-75
2022/06/20 05:59:59;;;;;;;11.80;5.60;;;21.30;99.90;;;;;;5028699;28;20021;-76
2022/06/20 06:02:37;;;;;;;14.07;5.97;;;21.30;99.90;;;;;;5011283;28;21152;-75
2022/06/20 06:05:25;;;;;;;18.00;6.43;;;21.20;99.90;;;;;;5011446;28;20048;-75
2022/06/20 06:08:22;;;;;;;14.80;6.40;;;21.20;99.90;;;;;;5015152;28;20031;-75
2022/06/20 06:11:03;;;;;;;16.63;6.22;;;21.20;99.90;;;;;;5034330;28;20486;-75
2022/06/20 06:13:49;;;;;;;18.95;6.53;;;21.20;99.90;;;;;;5037325;28;20029;-75
2022/06/20 06:16:46;;;;;;;11.32;5.28;;;21.10;99.90;;;;;;5015106;28;20026;-75
2022/06/20 06:19:17;;;;;;;11.98;5.75;;;21.10;99.90;;;;;;5021107;28;20386;-74
2022/06/20 06:21:43;;;;;;;;;;;21.10;99.90;;;;;;5021059;28;20052;-74
2022/06/20 06:24:15;;;;;;;18.70;6.22;;;21.20;99.90;;;;;;5007579;28;19905;-75
2022/06/20 06:26:44;;;;;;;14.65;5.85;;;21.20;99.90;;;;;;5004604;28;20030;-74
2022/06/20 06:29:18;;;;;;;19.08;5.82;;;21.10;99.90;;;;;;5028198;28;20120;-75
2022/06/20 06:31:46;;;;;;;20.38;7.10;;;21.10;99.90;;;;;;5024377;28;20107;-75
2022/06/20 06:34:47;;;;;;;20.48;6.95;;;21.10;99.90;;;;;;5013936;28;20037;-75
2022/06/20 06:37:21;;;;;;;15.48;6.05;;;21.10;99.90;;;;;;5021888;28;20027;-75
2022/06/20 06:40:03;;;;;;;14.70;6.55;;;21.20;99.90;;;;;;5034650;28;20033;-75
2022/06/20 06:42:29;;;;;;;14.02;6.60;;;21.30;99.90;;;;;;5025574;28;20080;-75
2022/06/20 06:44:58;;;;;;;12.98;6.18;;;21.20;99.90;;;;;;5017353;28;20022;-75
2022/06/20 06:47:33;;;;;;;15.15;6.40;;;21.20;99.90;;;;;;5037663;28;20547;-75
2022/06/20 06:50:28;;;;;;;19.15;6.20;;;21.20;99.90;;;;;;5022655;28;20065;-75
2022/06/20 06:53:05;;;;;;;21.40;6.10;;;21.30;99.90;;;;;;5019994;28;20030;-76
2022/06/20 06:55:38;;;;;;;12.52;6.18;;;21.30;99.90;;;;;;5020837;28;20057;-76
2022/06/20 06:58:27;;;;;;;19.20;6.88;;;21.30;99.90;;;;;;5023479;28;20033;-75
2022/06/20 07:01:04;;;;;;;21.33;6.72;;;21.30;99.90;;;;;;4989484;28;20072;-75
2022/06/20 07:03:38;;;;;;;22.30;6.55;;;21.30;99.90;;;;;;5006033;28;20033;-75
2022/06/20 07:06:13;;;;;;;20.23;6.10;;;21.30;99.90;;;;;;5026381;28;20018;-76
2022/06/20 07:08:46;;;;;;;16.30;7.38;;;21.30;99.90;;;;;;5029934;28;20060;-74
2022/06/20 07:11:21;;;;;;;17.65;6.00;;;21.40;99.90;;;;;;5011653;28;20455;-76
2022/06/20 07:14:05;;;;;;;17.35;7.28;;;21.40;99.90;;;;;;5013699;28;20017;-75
2022/06/20 07:16:44;;;;;;;12.60;6.30;;;21.30;99.90;;;;;;5029088;28;20073;-74
2022/06/20 07:19:12;;;;;;;18.50;6.63;;;21.30;99.90;;;;;;5015339;28;20053;-76
2022/06/20 07:21:42;;;;;;;23.85;6.63;;;21.30;99.90;;;;;;5036096;28;20044;-75
2022/06/20 07:24:14;;;;;;;14.00;6.33;;;21.40;99.90;;;;;;5033768;28;20079;-76
2022/06/20 07:26:51;;;;;;;23.70;6.70;;;21.40;99.90;;;;;;5018292;28;20030;-74
2022/06/20 07:29:26;;;;;;;27.13;7.88;;;21.40;99.90;;;;;;5020982;28;20077;-74
2022/06/20 07:32:18;;;;;;;17.52;7.70;;;21.40;99.90;;;;;;5002807;28;20029;-75
2022/06/20 07:34:58;;;;;;;24.60;7.57;;;21.30;99.90;;;;;;5021493;28;20022;-75
2022/06/20 07:37:31;;;;;;;17.27;8.40;;;21.30;99.90;;;;;;5027459;28;20036;-76
2022/06/20 07:40:03;;;;;;;22.95;8.95;;;21.30;99.90;;;;;;5031146;28;20022;-75
2022/06/20 07:42:47;;;;;;;17.30;8.02;;;21.30;99.90;;;;;;5016765;28;20025;-73
2022/06/20 07:45:23;;;;;;;19.40;8.68;;;21.30;99.90;;;;;;5016355;28;20024;-74
2022/06/20 07:48:00;;;;;;;14.98;7.50;;;21.40;99.90;;;;;;4999218;28;20044;-75
2022/06/20 07:50:49;;;;;;;23.75;8.68;;;21.40;99.90;;;;;;5018362;28;20105;-74
2022/06/20 07:53:18;;;;;;;14.35;8.18;;;21.50;99.90;;;;;;4993300;28;20030;-75
2022/06/20 07:55:49;;;;;;;17.27;8.23;;;21.70;99.90;;;;;;5002221;28;20021;-75
2022/06/20 07:58:23;;;;;;;16.27;8.43;;;21.80;99.90;;;;;;5024796;28;20128;-75
2022/06/20 08:00:52;;;;;;;22.58;8.63;;;21.90;99.90;;;;;;5004327;28;20025;-75
2022/06/20 08:03:18;;;;;;;23.92;9.88;;;22.00;99.90;;;;;;5010879;28;20022;-75
2022/06/20 08:05:55;;;;;;;21.95;9.65;;;21.90;99.90;;;;;;5024230;28;20026;-76
2022/06/20 08:08:46;;;;;;;18.08;9.18;;;21.90;99.90;;;;;;5024120;28;20485;-75
2022/06/20 08:11:42;;;;;;;19.45;9.93;;;22.00;99.90;;;;;;5029054;28;20030;-75
2022/06/20 08:14:40;;;;;;;16.92;9.02;;;22.10;99.90;;;;;;5031507;28;20020;-75
2022/06/20 08:17:09;;;;;;;21.58;9.25;;;22.20;99.90;;;;;;5036457;28;20083;-75
2022/06/20 08:19:38;;;;;;;23.20;9.13;;;22.30;99.90;;;;;;5020896;28;20117;-75
2022/06/20 08:22:24;;;;;;;20.15;10.68;;;22.40;99.90;;;;;;5021922;28;20038;-75
2022/06/20 08:24:59;;;;;;;17.58;9.63;;;22.70;99.90;;;;;;5021289;28;20022;-76
2022/06/20 08:27:40;;;;;;;19.75;9.43;;;22.70;99.90;;;;;;5023568;28;20026;-75
2022/06/20 08:30:12;;;;;;;16.13;9.90;;;22.60;99.90;;;;;;5023283;28;20032;-75
2022/06/20 08:33:05;;;;;;;20.27;9.32;;;22.60;99.90;;;;;;5006583;28;20034;-75
2022/06/20 08:35:47;;;;;;;22.35;9.50;;;22.60;99.90;;;;;;5028468;28;20060;-76
2022/06/20 08:38:19;;;;;;;20.25;9.75;;;22.60;99.90;;;;;;5011107;28;20053;-76
2022/06/20 08:41:19;;;;;;;16.55;9.07;;;22.60;99.90;;;;;;5022201;28;20057;-76
2022/06/20 08:44:13;;;;;;;19.80;9.93;;;22.60;99.90;;;;;;5036252;28;20101;-76
2022/06/20 08:47:06;;;;;;;16.30;9.95;;;22.80;99.90;;;;;;5037901;28;20272;-75
2022/06/20 08:49:54;;;;;;;18.63;9.88;;;22.80;99.90;;;;;;5007369;28;20049;-76
2022/06/20 08:52:35;;;;;;;21.20;10.48;;;22.70;99.90;;;;;;5011432;28;20088;-76
2022/06/20 08:55:35;;;;;;;23.55;9.88;;;22.80;99.90;;;;;;5013571;28;20037;-76
2022/06/20 08:58:36;;;;;;;22.15;10.20;;;22.90;99.90;;;;;;5003452;28;20022;-75
2022/06/20 09:01:25;;;;;;;21.42;9.32;;;22.90;99.90;;;;;;5004084;28;20018;-76
2022/06/20 09:04:06;;;;;;;20.90;8.82;;;22.90;99.90;;;;;;5013882;28;20109;-76
2022/06/20 09:06:32;;;;;;;18.40;9.38;;;22.90;99.90;;;;;;5011278;28;20497;-76
2022/06/20 09:09:34;;;;;;;20.83;9.50;;;22.90;99.90;;;;;;5007339;28;20097;-76
2022/06/20 09:12:15;;;;;;;21.50;10.05;;;22.80;99.90;;;;;;4996045;28;20076;-76
2022/06/20 09:14:47;;;;;;;18.65;9.75;;;22.70;99.90;;;;;;5013641;28;20029;-76
2022/06/20 09:17:51;;;;;;;26.00;9.63;;;22.60;99.90;;;;;;5010228;28;20100;-75
2022/06/20 09:20:44;;;;;;;19.67;9.85;;;22.60;99.90;;;;;;4969343;28;20450;-75
2022/06/20 09:23:30;;;;;;;18.20;9.50;;;22.60;99.90;;;;;;4947935;29;20102;-76
2022/06/20 09:26:31;;;;;;;14.20;9.02;;;22.50;99.90;;;;;;5003051;28;20038;-76
2022/06/20 09:29:02;;;;;;;;;;;22.50;99.90;;;;;;4976166;28;20035;-76
2022/06/20 09:31:56;;;;;;;22.58;9.93;;;22.60;99.90;;;;;;5018202;28;20487;-76
2022/06/20 09:34:55;;;;;;;27.95;10.23;;;22.80;99.90;;;;;;5019379;28;20492;-76
2022/06/20 09:37:45;;;;;;;20.65;10.13;;;23.00;99.90;;;;;;5018063;28;20029;-75
2022/06/20 09:40:29;;;;;;;21.73;10.52;;;22.80;99.90;;;;;;5010224;28;20029;-76
2022/06/20 09:43:06;;;;;;;19.48;8.77;;;22.90;99.90;;;;;;5012226;28;20033;-76
2022/06/20 09:45:55;;;;;;;22.00;9.40;;;22.80;99.90;;;;;;5013982;28;20034;-76
2022/06/20 09:48:46;;;;;;;21.55;10.40;;;22.90;99.90;;;;;;5022254;28;20052;-76
2022/06/20 09:51:27;;;;;;;17.77;9.43;;;22.90;99.90;;;;;;5037481;28;20056;-75
2022/06/20 09:53:59;;;;;;;;;;;23.00;99.90;;;;;;5019377;28;20021;-75
2022/06/20 09:56:38;;;;;;;19.92;9.45;;;23.30;99.90;;;;;;5020424;28;19928;-75
2022/06/20 09:59:17;;;;;;;21.10;9.15;;;23.40;99.90;;;;;;5020222;28;20073;-76
2022/06/20 10:01:47;;;;;;;22.42;10.18;;;23.40;99.90;;;;;;5023557;28;20087;-76
2022/06/20 10:04:41;;;;;;;17.00;9.90;;;23.50;99.90;;;;;;5022424;28;20029;-76
2022/06/20 10:07:29;;;;;;;23.05;9.25;;;23.70;99.90;;;;;;5014508;28;20025;-76
2022/06/20 10:10:21;;;;;;;21.25;9.57;;;23.90;99.90;;;;;;5012674;28;20070;-75
2022/06/20 10:13:10;;;;;;;21.33;9.02;;;24.10;99.90;;;;;;5028858;28;20032;-75
2022/06/20 10:15:48;;;;;;;25.65;10.07;;;24.20;99.90;;;;;;5028348;28;20025;-77
2022/06/20 10:18:54;;;;;;;18.45;8.75;;;24.40;99.90;;;;;;5008820;28;20513;-76
2022/06/20 10:21:35;;;;;;;31.23;9.13;;;24.80;99.90;;;;;;5011948;28;20047;-76
2022/06/20 10:24:27;;;;;;;23.70;8.10;;;25.30;99.90;;;;;;5035364;28;20018;-76
2022/06/20 10:26:53;;;;;;;14.60;8.00;;;25.70;99.90;;;;;;5037428;28;20026;-74
2022/06/20 10:29:25;;;;;;;18.00;8.93;;;26.00;99.90;;;;;;5019555;28;20085;-76
2022/06/20 10:32:16;;;;;;;17.55;8.25;;;26.00;99.90;;;;;;5001998;28;20029;-75
2022/06/20 10:34:51;;;;;;;22.13;8.88;;;26.10;99.90;;;;;;5003149;28;20022;-75
2022/06/20 10:37:33;;;;;;;19.70;9.40;;;26.00;99.90;;;;;;5007039;28;20470;-75
2022/06/20 10:40:17;;;;;;;14.52;8.50;;;26.10;99.90;;;;;;5012857;28;20076;-74
2022/06/20 10:42:58;;;;;;;22.17;8.70;;;26.10;99.90;;;;;;5028172;28;20025;-74
2022/06/20 10:45:43;;;;;;;16.55;8.07;;;26.50;99.90;;;;;;5030284;28;20026;-75
2022/06/20 10:48:14;;;;;;;17.67;7.43;;;26.80;99.90;;;;;;5007143;28;20046;-75
2022/06/20 10:50:46;;;;;;;16.52;7.50;;;27.10;99.90;;;;;;5012671;28;20048;-77
2022/06/20 10:53:38;;;;;;;18.40;8.50;;;27.30;99.90;;;;;;5011903;28;20022;-76
2022/06/20 10:56:10;;;;;;;19.58;7.28;;;27.70;99.90;;;;;;4989906;28;20035;-76
2022/06/20 10:58:57;;;;;;;24.42;8.98;;;27.70;99.90;;;;;;5003327;28;20076;-75
2022/06/20 11:01:34;;;;;;;19.38;7.63;;;27.70;99.90;;;;;;5014441;28;20037;-75
2022/06/20 11:04:30;;;;;;;16.15;7.85;;;27.60;99.90;;;;;;4999170;28;20081;-76
2022/06/20 11:07:05;;;;;;;23.92;8.50;;;27.60;99.90;;;;;;4999200;28;20031;-75
2022/06/20 11:09:49;;;;;;;16.98;7.05;;;27.80;99.90;;;;;;5002664;28;20049;-76
2022/06/20 11:12:55;;;;;;;17.70;7.07;;;28.00;99.90;;;;;;5002069;28;20109;-76
2022/06/20 11:15:39;;;;;;;20.52;7.15;;;28.20;99.90;;;;;;5008163;28;20022;-76
2022/06/20 11:18:21;;;;;;;21.50;7.72;;;28.60;99.90;;;;;;5004345;28;20033;-76
2022/06/20 11:20:57;;;;;;;19.13;6.90;;;28.50;99.90;;;;;;5007254;28;20026;-76
2022/06/20 11:23:58;;;;;;;20.13;7.15;;;28.70;99.90;;;;;;5011203;28;20038;-76
2022/06/20 11:26:43;;;;;;;13.32;7.07;;;28.50;99.90;;;;;;4971926;28;20037;-76
2022/06/20 11:29:54;;;;;;;21.83;7.85;;;28.70;99.90;;;;;;5012424;28;20030;-75
2022/06/20 11:32:48;;;;;;;14.32;7.63;;;28.30;99.90;;;;;;5009615;28;20521;-77
2022/06/20 11:35:33;;;;;;;21.40;6.82;;;28.20;99.90;;;;;;5015814;28;20026;-76
2022/06/20 11:38:13;;;;;;;18.40;8.00;;;28.20;99.90;;;;;;4998496;28;20026;-76
2022/06/20 11:40:58;;;;;;;15.32;7.63;;;28.20;99.90;;;;;;5011137;28;20030;-75
2022/06/20 11:44:06;;;;;;;21.58;7.70;;;28.30;99.90;;;;;;5006603;28;20105;-76
2022/06/20 11:47:06;;;;;;;17.73;8.32;;;28.30;99.90;;;;;;5005895;28;20483;-77
2022/06/20 11:49:55;;;;;;;16.48;6.53;;;28.40;99.90;;;;;;5011762;28;20095;-76
2022/06/20 11:52:28;;;;;;;18.38;7.18;;;28.50;99.90;;;;;;5011775;28;20034;-76
2022/06/20 11:55:04;;;;;;;13.52;7.63;;;28.80;99.90;;;;;;5017037;28;20022;-76
2022/06/20 11:57:46;;;;;;;19.70;7.25;;;28.90;99.90;;;;;;5020431;28;20022;-76
2022/06/20 12:00:19;;;;;;;13.85;6.80;;;28.80;99.90;;;;;;5013285;28;20039;-76
2022/06/20 12:03:16;;;;;;;19.40;7.00;;;29.00;99.90;;;;;;5016607;28;20072;-76
2022/06/20 12:05:51;;;;;;;22.30;7.90;;;28.80;99.90;;;;;;5016235;28;20490;-76
2022/06/20 12:08:34;;;;;;;16.50;6.97;;;28.60;99.90;;;;;;5010086;28;20398;-76
2022/06/20 12:11:26;;;;;;;23.90;7.47;;;28.60;99.90;;;;;;5014274;28;20018;-76
2022/06/20 12:14:10;;;;;;;15.60;6.53;;;28.80;99.90;;;;;;4972868;28;20054;-76
2022/06/20 12:16:47;;;;;;;17.17;6.60;;;28.70;99.90;;;;;;5008738;28;20026;-75
2022/06/20 12:25:52;;;;;;;15.25;6.80;;;29.20;99.90;;;;;;5006606;28;20053;-75
2022/06/20 12:28:23;;;;;;;20.55;6.63;;;29.80;99.90;;;;;;5003667;28;20441;-75
2022/06/20 12:31:11;;;;;;;24.70;6.82;;;30.00;99.90;;;;;;5013790;28;20018;-76
2022/06/20 12:33:51;;;;;;;13.30;6.03;;;30.40;99.90;;;;;;5011654;28;20022;-75
2022/06/20 12:36:17;;;;;;;;;;;30.40;99.90;;;;;;5020165;28;20022;-75
2022/06/20 12:39:03;;;;;;;17.27;6.50;;;30.20;99.90;;;;;;5016286;28;19932;-76
2022/06/20 12:41:36;;;;;;;22.65;6.50;;;30.40;99.40;;;;;;5017948;28;20071;-76
2022/06/20 12:44:30;;;;;;;19.38;6.97;;;30.50;99.10;;;;;;5007667;28;20483;-76
2022/06/20 12:47:24;;;;;;;15.65;5.93;;;30.30;99.50;;;;;;5002516;28;20030;-76
2022/06/20 12:49:59;;;;;;;15.02;6.07;;;30.10;99.90;;;;;;5022114;28;20084;-76
2022/06/20 12:52:34;;;;;;;13.68;6.38;;;30.40;99.60;;;;;;5023200;28;20463;-76
2022/06/20 12:55:12;;;;;;;13.23;5.80;;;30.50;99.90;;;;;;5009674;28;20112;-76
2022/06/20 12:58:01;;;;;;;17.35;6.07;;;30.90;99.90;;;;;;5024847;28;20014;-76
2022/06/20 13:00:45;;;;;;;15.40;5.95;;;31.30;98.30;;;;;;5025325;28;20063;-76
2022/06/20 13:03:39;;;;;;;16.35;5.40;;;31.30;97.40;;;;;;5013107;28;20022;-78
2022/06/20 13:06:26;;;;;;;15.95;5.30;;;31.10;97.40;;;;;;5028755;28;20018;-75
2022/06/20 13:09:13;;;;;;;19.67;6.45;;;31.40;98.50;;;;;;5015654;28;20021;-76
2022/06/20 13:11:58;;;;;;;14.93;5.13;;;31.80;98.20;;;;;;5036656;28;20087;-75
2022/06/20 13:14:50;;;;;;;16.33;5.28;;;32.20;96.60;;;;;;5019095;28;20026;-77
2022/06/20 13:17:19;;;;;;;14.13;5.07;;;32.00;97.20;;;;;;5025849;28;20029;-77
2022/06/20 13:20:21;;;;;;;15.30;5.00;;;32.40;95.30;;;;;;5010229;28;20022;-76
2022/06/20 13:23:16;;;;;;;13.73;4.85;;;32.10;96.00;;;;;;5008972;28;20478;-76
2022/06/20 13:26:07;;;;;;;14.45;5.07;;;31.70;95.60;;;;;;5026168;28;20448;-75
2022/06/20 13:28:46;;;;;;;16.08;5.30;;;31.60;96.50;;;;;;5013062;28;20391;-75
2022/06/20 13:31:17;;;;;;;13.93;5.38;;;31.20;96.40;;;;;;5010483;28;20034;-76
2022/06/20 13:33:53;;;;;;;19.13;5.43;;;30.70;96.20;;;;;;5035109;28;20196;-76
2022/06/20 13:36:44;;;;;;;19.23;6.20;;;30.60;96.90;;;;;;5029696;28;20029;-76
2022/06/20 13:39:42;;;;;;;15.02;5.03;;;30.40;96.80;;;;;;5026279;28;20013;-76
2022/06/20 13:42:32;;;;;;;20.20;5.50;;;30.10;96.80;;;;;;5034552;28;20029;-76
2022/06/20 13:45:17;;;;;;;15.40;4.47;;;30.00;96.80;;;;;;5032609;28;20018;-76
2022/06/20 13:47:49;;;;;;;14.23;5.25;;;29.90;97.70;;;;;;5018985;28;20049;-76
2022/06/20 13:50:34;;;;;;;12.02;5.25;;;30.00;97.10;;;;;;5018215;28;20056;-76